KGEY/GEY METAR and TAF weather

Enter ICAO airport designator
Station Type Date Time Source
KGEY METAR 2019/12/06 01:53 UTC NOAA

KGEY 060153Z AUTO 00000KT 10SM CLR M05/M08 A3016 RMK AO2 SLP274 T10501078


Station Type Date Time Source
KGEY Decoded METAR 2019/12/06 01:53 UTC NOAA

SOUTH BIG HORN COUNTY AIRPORT , WY, United States (KGEY) 44-31N 108-05W 1191M
Dec 05, 2019 - 08:53 PM EST / 2019.12.06 0153 UTC
Wind: Calm:0
Visibility: 10 mile(s):0
Sky conditions: clear
Temperature: 23.0 F (-5.0 C)
Dew Point: 18.0 F (-7.8 C)
Relative Humidity: 80%
Pressure (altimeter): 30.16 in. Hg (1021 hPa)
ob: KGEY 060153Z AUTO 00000KT 10SM CLR M05/M08 A3016 RMK AO2 SLP274 T10501078
cycle: 2

Station Type Date Time Source
KGEY TAF UTC NOAA

Error!

Example: see airport list